Time;durP1;ratioP1;P1;durP2;ratioP2;P2;SDS_P1;SDS_P2;PMS_P1;PMS_P2;Temp;Humidity;BMP_temperature;BMP_pressure;BME280_temperature;BME280_humidity;BME280_pressure;Samples;Min_cycle;Max_cycle;Signal;HPM_P1;HPM_P2
2021/08/20 00:00:42;;;;;;;3.92;1.52;;;;;;;14.44;100.00;93874.41;5072818;28;20881;-79
2021/08/20 00:03:08;;;;;;;2.05;1.60;;;;;;;14.44;100.00;93867.31;5073065;28;20206;-79
2021/08/20 00:05:35;;;;;;;6.10;1.88;;;;;;;14.49;100.00;93871.09;5073237;28;20206;-80
2021/08/20 00:08:03;;;;;;;2.85;1.80;;;;;;;14.48;100.00;93875.53;5073093;28;20199;-80
2021/08/20 00:10:30;;;;;;;2.65;1.70;;;;;;;14.49;100.00;93878.97;5073081;28;20195;-79
2021/08/20 00:12:56;;;;;;;3.58;1.67;;;;;;;14.48;100.00;93882.63;5073158;28;20202;-78
2021/08/20 00:15:23;;;;;;;5.55;1.67;;;;;;;14.44;100.00;93871.78;5073168;28;20194;-79
2021/08/20 00:17:49;;;;;;;2.25;1.75;;;;;;;14.41;100.00;93875.63;5072913;28;20689;-79
2021/08/20 00:20:16;;;;;;;3.75;1.58;;;;;;;14.41;100.00;93880.88;5073000;28;20203;-79
2021/08/20 00:22:42;;;;;;;2.95;1.70;;;;;;;14.43;100.00;93878.81;5072816;28;20654;-79
2021/08/20 00:25:11;;;;;;;3.47;1.42;;;;;;;14.39;100.00;93872.44;5072332;28;20298;-79
2021/08/20 00:27:38;;;;;;;2.15;1.63;;;;;;;14.39;100.00;93867.19;5072764;28;20210;-78
2021/08/20 00:30:07;;;;;;;5.07;1.80;;;;;;;14.37;100.00;93868.41;5072888;28;20202;-79
2021/08/20 00:32:34;;;;;;;4.72;1.58;;;;;;;14.36;100.00;93874.69;5072846;28;20207;-79
2021/08/20 00:35:00;;;;;;;2.92;1.42;;;;;;;14.33;100.00;93872.50;5072764;28;20202;-80
2021/08/20 00:37:27;;;;;;;4.20;1.85;;;;;;;14.31;100.00;93864.84;5072850;28;20231;-79
2021/08/20 00:39:53;;;;;;;2.80;1.70;;;;;;;14.30;100.00;93867.69;5073015;28;20202;-80
2021/08/20 00:42:21;;;;;;;2.47;1.60;;;;;;;14.30;100.00;93865.06;5072797;28;20557;-79
2021/08/20 00:44:48;;;;;;;4.50;1.67;;;;;;;14.29;100.00;93861.66;5072899;28;20209;-79
2021/08/20 00:47:14;;;;;;;5.43;1.97;;;;;;;14.29;100.00;93864.28;5072198;28;20438;-80
2021/08/20 00:49:40;;;;;;;3.97;1.73;;;;;;;14.30;100.00;93872.94;5072544;28;20939;-81
2021/08/20 00:52:08;;;;;;;2.38;1.63;;;;;;;14.38;100.00;93870.81;5072581;28;20205;-80
2021/08/20 00:54:34;;;;;;;3.78;1.58;;;;;;;14.31;100.00;93875.34;5072602;28;20210;-80
2021/08/20 00:57:02;;;;;;;5.25;1.58;;;;;;;14.28;100.00;93875.78;5072595;28;20672;-79
2021/08/20 00:59:30;;;;;;;2.22;1.40;;;;;;;14.29;100.00;93868.69;5072697;28;20206;-79
2021/08/20 01:01:56;;;;;;;4.13;2.13;;;;;;;14.32;100.00;93871.72;5072529;28;20198;-79
2021/08/20 01:04:23;;;;;;;3.10;1.60;;;;;;;14.29;100.00;93882.66;5073200;28;20199;-81
2021/08/20 01:06:52;;;;;;;4.55;1.88;;;;;;;14.38;100.00;93886.56;5076779;28;20217;-79
2021/08/20 01:09:20;;;;;;;3.45;1.77;;;;;;;14.37;100.00;93878.91;5076632;28;20217;-80
2021/08/20 01:11:47;;;;;;;4.88;1.73;;;;;;;14.37;100.00;93881.53;5076606;28;20209;-80
2021/08/20 01:14:16;;;;;;;2.65;1.55;;;;;;;14.36;100.00;93880.75;5076319;28;20684;-79
2021/08/20 01:16:44;;;;;;;5.18;2.25;;;;;;;14.29;100.00;93877.41;5076407;28;20213;-79
2021/08/20 01:19:11;;;;;;;2.83;1.60;;;;;;;14.27;100.00;93873.38;5076407;28;20230;-79
2021/08/20 01:21:37;;;;;;;3.72;1.90;;;;;;;14.23;100.00;93873.81;5075581;28;20530;-80
2021/08/20 01:24:04;;;;;;;2.25;1.80;;;;;;;14.22;100.00;93876.66;5076253;28;20562;-80
2021/08/20 01:26:33;;;;;;;2.65;1.58;;;;;;;14.20;100.00;93879.50;5076228;28;20202;-79
2021/08/20 01:28:59;;;;;;;4.72;1.70;;;;;;;14.19;100.00;93874.50;5075277;28;20212;-80
2021/08/20 01:31:26;;;;;;;2.65;1.55;;;;;;;14.17;100.00;93872.09;5076052;28;20231;-79
2021/08/20 01:33:54;;;;;;;3.55;1.80;;;;;;;14.16;100.00;93864.44;5075973;28;20195;-79
2021/08/20 01:36:20;;;;;;;2.75;1.52;;;;;;;14.15;100.00;93870.69;5076050;28;20211;-79
2021/08/20 01:38:49;;;;;;;3.42;1.60;;;;;;;14.15;100.00;93868.88;5075975;28;20222;-80
2021/08/20 01:41:16;;;;;;;7.20;1.90;;;;;;;14.16;100.00;93874.94;5076028;28;20199;-79
2021/08/20 01:43:44;;;;;;;2.45;1.52;;;;;;;14.15;100.00;93870.69;5075844;28;20265;-80
2021/08/20 01:46:11;;;;;;;3.58;1.60;;;;;;;14.12;100.00;93864.09;5075708;28;20237;-81
2021/08/20 01:48:44;;;;;;;2.50;1.63;;;;;;;14.14;100.00;93867.28;5073865;28;20195;-81
2021/08/20 01:51:12;;;;;;;2.13;1.48;;;;;;;14.13;100.00;93857.78;5075832;28;20202;-81
2021/08/20 01:53:39;;;;;;;5.50;2.10;;;;;;;14.10;100.00;93855.59;5075799;28;20202;-80
2021/08/20 01:56:07;;;;;;;2.55;1.55;;;;;;;14.11;100.00;93861.66;5075696;28;20289;-80
2021/08/20 01:58:33;;;;;;;4.15;2.00;;;;;;;14.11;100.00;93859.84;5074762;28;20700;-80
2021/08/20 02:01:03;;;;;;;4.43;1.80;;;;;;;14.09;100.00;93866.31;5075662;28;20203;-80
2021/08/20 02:03:30;;;;;;;3.58;1.77;;;;;;;14.11;100.00;93859.84;5075490;28;20549;-80
2021/08/20 02:05:56;;;;;;;3.47;1.60;;;;;;;14.11;100.00;93864.28;5075470;28;20209;-80
2021/08/20 02:08:23;;;;;;;3.45;1.70;;;;;;;14.10;100.00;93867.94;5075364;28;20203;-80
2021/08/20 02:10:49;;;;;;;3.95;1.55;;;;;;;14.08;100.00;93868.16;5075290;28;20210;-79
2021/08/20 02:13:16;;;;;;;5.25;1.83;;;;;;;14.07;100.00;93864.72;5075548;28;20198;-79
2021/08/20 02:15:42;;;;;;;6.20;1.73;;;;;;;14.06;100.00;93868.38;5074838;28;20681;-80
2021/08/20 02:18:10;;;;;;;3.00;1.67;;;;;;;14.05;100.00;93866.78;5074079;28;20458;-79
2021/08/20 02:20:40;;;;;;;3.22;2.10;;;;;;;14.06;100.00;93871.00;5075282;28;20680;-80
2021/08/20 02:23:07;;;;;;;2.60;1.60;;;;;;;14.02;100.00;93871.63;5075187;28;20203;-80
2021/08/20 02:25:33;;;;;;;2.58;1.67;;;;;;;14.02;100.00;93863.75;5074999;28;20207;-80
2021/08/20 02:28:00;;;;;;;2.95;1.40;;;;;;;14.00;100.00;93869.22;5075287;28;20210;-79
2021/08/20 02:30:26;;;;;;;2.40;1.60;;;;;;;13.98;100.00;93876.53;5074590;28;20237;-79
2021/08/20 02:32:53;;;;;;;2.50;1.70;;;;;;;13.96;100.00;93873.34;5074092;28;20203;-80
2021/08/20 02:35:21;;;;;;;2.85;1.88;;;;;;;13.94;100.00;93872.75;5075054;28;20214;-79
2021/08/20 02:37:48;;;;;;;3.42;1.80;;;;;;;13.96;100.00;93875.97;5074728;28;20693;-80
2021/08/20 02:40:15;;;;;;;3.33;1.55;;;;;;;13.99;100.00;93878.16;5075108;28;20198;-80
2021/08/20 02:42:41;;;;;;;4.25;2.15;;;;;;;13.96;100.00;93875.97;5074902;28;20203;-81
2021/08/20 02:45:08;;;;;;;4.63;1.70;;;;;;;13.94;100.00;93880.63;5074667;28;20209;-80
2021/08/20 02:47:35;;;;;;;2.65;1.67;;;;;;;13.93;100.00;93875.59;5071944;28;20225;-80
2021/08/20 02:50:02;;;;;;;1.92;1.55;;;;;;;13.94;100.00;93878.00;5073939;28;20209;-80
2021/08/20 02:52:29;;;;;;;10.45;1.75;;;;;;;13.93;100.00;93878.22;5073905;28;20202;-80
2021/08/20 02:54:56;;;;;;;3.65;1.70;;;;;;;13.91;100.00;93875.81;5074944;28;20213;-80
2021/08/20 02:57:27;;;;;;;2.33;1.60;;;;;;;13.90;100.00;93879.44;5074303;28;20649;-79
2021/08/20 02:59:53;;;;;;;2.00;1.50;;;;;;;13.86;100.00;93876.47;5074751;28;20203;-80
2021/08/20 03:02:20;;;;;;;2.83;1.63;;;;;;;13.85;100.00;93882.72;5074113;28;20446;-80
2021/08/20 03:04:46;;;;;;;2.88;1.70;;;;;;;13.86;100.00;93878.28;5074448;28;20225;-80
2021/08/20 03:07:13;;;;;;;3.55;2.10;;;;;;;13.87;100.00;93879.88;5074231;28;20205;-80
2021/08/20 03:09:41;;;;;;;3.92;1.58;;;;;;;13.88;100.00;93881.50;5074182;28;20202;-80
2021/08/20 03:12:08;;;;;;;2.95;1.70;;;;;;;13.89;100.00;93880.47;5074377;28;20203;-80
2021/08/20 03:14:34;;;;;;;3.85;2.33;;;;;;;13.92;100.00;93871.34;5073750;28;20202;-80
2021/08/20 03:17:01;;;;;;;2.35;1.65;;;;;;;13.94;100.00;93877.19;5074180;28;20202;-80
2021/08/20 03:19:27;;;;;;;4.95;1.90;;;;;;;13.92;100.00;93873.97;5073978;28;20226;-80
2021/08/20 03:21:54;;;;;;;5.63;1.77;;;;;;;13.91;100.00;93869.78;5074083;28;20213;-80
2021/08/20 03:24:20;;;;;;;7.47;1.88;;;;;;;13.88;100.00;93876.25;5073939;28;20562;-79
2021/08/20 03:26:48;;;;;;;2.03;1.55;;;;;;;13.85;100.00;93866.97;5074034;28;20203;-79
2021/08/20 03:29:15;;;;;;;2.03;1.63;;;;;;;13.83;100.00;93868.22;5072981;28;20206;-80
2021/08/20 03:31:41;;;;;;;4.47;1.90;;;;;;;13.83;100.00;93873.47;5073789;28;20206;-80
2021/08/20 03:34:08;;;;;;;3.10;1.80;;;;;;;13.78;100.00;93871.50;5073760;28;20194;-80
2021/08/20 03:36:35;;;;;;;2.67;1.75;;;;;;;13.71;100.00;93870.78;5073955;28;20206;-80
2021/08/20 03:39:12;;;;;;;5.32;2.03;;;;;;;13.74;100.00;93872.13;5073069;28;20235;-80
2021/08/20 03:41:38;;;;;;;4.20;1.80;;;;;;;13.71;100.00;93869.97;5073677;28;20199;-78
2021/08/20 03:44:06;;;;;;;2.80;1.80;;;;;;;13.64;100.00;93870.03;5073001;28;20206;-80
2021/08/20 03:46:33;;;;;;;3.42;1.88;;;;;;;13.59;100.00;93869.88;5072955;28;20697;-80
2021/08/20 03:48:59;;;;;;;4.17;1.80;;;;;;;13.57;100.00;93883.19;5071787;28;20504;-80
2021/08/20 03:51:26;;;;;;;4.78;2.15;;;;;;;13.54;100.00;93870.53;5073281;28;20209;-80
2021/08/20 03:53:52;;;;;;;2.65;1.77;;;;;;;13.53;100.00;93874.16;5073239;28;20203;-80
2021/08/20 03:56:19;;;;;;;2.53;1.60;;;;;;;13.52;100.00;93877.78;5073428;28;20198;-80
2021/08/20 03:58:45;;;;;;;3.83;2.28;;;;;;;13.50;100.00;93879.84;5073351;28;20650;-79
2021/08/20 04:01:13;;;;;;;4.75;1.90;;;;;;;13.46;100.00;93889.97;5073062;28;20646;-79
2021/08/20 04:03:39;;;;;;;7.50;1.88;;;;;;;13.43;100.00;93886.97;5073137;28;20199;-79
2021/08/20 04:06:09;;;;;;;4.00;2.10;;;;;;;13.45;100.00;93882.31;5073388;28;20205;-79
2021/08/20 04:08:35;;;;;;;3.85;2.00;;;;;;;13.41;100.00;93884.56;5073261;28;20226;-79
2021/08/20 04:11:02;;;;;;;2.33;1.77;;;;;;;13.36;100.00;93888.84;5073179;28;20198;-80
2021/08/20 04:13:29;;;;;;;7.22;2.10;;;;;;;13.32;100.00;93893.69;5073120;28;20206;-80
2021/08/20 04:15:55;;;;;;;5.80;2.03;;;;;;;13.25;100.00;93893.72;5072978;28;20206;-80
2021/08/20 04:18:23;;;;;;;4.38;2.40;;;;;;;13.26;100.00;93884.84;5072861;28;20233;-80
2021/08/20 04:20:49;;;;;;;2.92;2.15;;;;;;;13.25;100.00;93891.09;5073030;28;20554;-80
2021/08/20 04:23:16;;;;;;;3.55;2.15;;;;;;;13.22;100.00;93891.56;5073073;28;20194;-81
2021/08/20 04:25:42;;;;;;;4.68;2.25;;;;;;;13.21;100.00;93897.81;5072875;28;20662;-81
2021/08/20 04:28:09;;;;;;;5.25;2.55;;;;;;;13.26;100.00;93897.97;5073003;28;20202;-79
2021/08/20 04:30:35;;;;;;;6.75;2.13;;;;;;;13.25;100.00;93904.22;5072924;28;20289;-80
2021/08/20 04:33:03;;;;;;;4.88;2.15;;;;;;;13.23;100.00;93908.88;5072586;28;20210;-81
2021/08/20 04:35:31;;;;;;;3.55;2.03;;;;;;;13.22;100.00;93907.28;5072920;28;20668;-80
2021/08/20 04:37:58;;;;;;;3.05;2.35;;;;;;;13.23;100.00;93911.50;5072744;28;20597;-80
2021/08/20 04:40:25;;;;;;;2.67;1.90;;;;;;;13.25;100.00;93904.22;5072477;28;20301;-79
2021/08/20 04:42:51;;;;;;;2.83;2.10;;;;;;;13.27;100.00;93906.63;5072690;28;20209;-80
2021/08/20 04:45:18;;;;;;;6.70;2.08;;;;;;;13.28;100.00;93906.41;5072825;28;20621;-80
2021/08/20 04:47:45;;;;;;;3.15;1.95;;;;;;;13.29;100.00;93913.28;5072909;28;20222;-81
2021/08/20 04:50:13;;;;;;;4.07;1.90;;;;;;;13.28;100.00;93911.66;5072915;28;20252;-79
2021/08/20 04:52:41;;;;;;;4.68;2.35;;;;;;;13.32;100.00;93915.50;5072827;28;20252;-80
2021/08/20 04:55:08;;;;;;;6.35;2.13;;;;;;;13.32;100.00;93915.50;5072674;28;20206;-80
2021/08/20 04:57:35;;;;;;;6.70;2.20;;;;;;;13.31;100.00;93913.84;5072605;28;20199;-80
2021/08/20 05:00:02;;;;;;;4.40;2.50;;;;;;;13.33;100.00;93917.09;5071150;28;20242;-80
2021/08/20 05:02:30;;;;;;;6.30;2.50;;;;;;;13.36;100.00;93913.25;5072598;28;20561;-80
2021/08/20 05:04:57;;;;;;;3.67;2.03;;;;;;;13.42;100.00;93915.03;5072492;28;20226;-80
2021/08/20 05:07:23;;;;;;;4.03;2.08;;;;;;;13.46;100.00;93931.13;5072599;28;20198;-79
2021/08/20 05:09:52;;;;;;;4.78;1.90;;;;;;;13.51;100.00;93926.84;5072632;28;20207;-80
2021/08/20 05:12:19;;;;;;;5.80;1.88;;;;;;;13.54;100.00;93928.25;5072403;28;20209;-79
2021/08/20 05:14:45;;;;;;;2.58;2.00;;;;;;;13.60;100.00;93932.59;5072633;28;20202;-80
2021/08/20 05:17:12;;;;;;;7.75;2.17;;;;;;;13.71;100.00;93925.88;5072569;28;20198;-80
2021/08/20 05:19:38;;;;;;;2.75;2.13;;;;;;;13.86;100.00;93930.78;5072283;28;20222;-80
2021/08/20 05:22:05;;;;;;;11.68;2.45;;;;;;;13.92;100.00;93921.22;5072438;28;20199;-80
2021/08/20 05:24:31;;;;;;;2.88;1.83;;;;;;;14.09;100.00;93929.31;5072375;28;20217;-80
2021/08/20 05:26:59;;;;;;;8.48;2.00;;;;;;;14.12;100.00;93929.72;5072313;28;20195;-81
2021/08/20 05:29:25;;;;;;;2.55;2.03;;;;;;;14.09;100.00;93934.56;5072485;28;20207;-80
2021/08/20 05:31:52;;;;;;;5.95;2.35;;;;;;;14.06;100.00;93939.25;5072416;28;20202;-80
2021/08/20 05:34:20;;;;;;;3.22;2.00;;;;;;;14.11;100.00;93940.44;5072338;28;20206;-79
2021/08/20 05:36:46;;;;;;;2.97;2.00;;;;;;;14.32;100.00;93939.19;5072252;28;20272;-80
2021/08/20 05:39:13;;;;;;;2.75;1.77;;;;;;;14.60;100.00;93936.06;5072085;28;20715;-80
2021/08/20 05:41:39;;;;;;;2.08;1.45;;;;;;;14.69;100.00;93945.25;5072490;28;20669;-80
2021/08/20 05:44:07;;;;;;;2.15;1.55;;;;;;;14.84;100.00;93938.78;5072295;28;20225;-80
2021/08/20 05:46:33;;;;;;;5.97;1.58;;;;;;;15.04;100.00;93946.41;5071972;28;20238;-81
2021/08/20 05:49:03;;;;;;;5.43;1.65;;;;;;;15.05;100.00;93940.13;5072152;28;20202;-80
2021/08/20 05:51:30;;;;;;;2.80;1.50;;;;;;;15.26;100.00;93938.81;5072881;28;20203;-80
2021/08/20 05:53:58;;;;;;;4.47;1.85;;;;;;;15.46;100.00;93943.78;5075630;28;20203;-79
2021/08/20 05:56:25;;;;;;;5.50;2.17;;;;;;;15.56;100.00;93948.50;5075519;28;20531;-80
2021/08/20 05:58:52;;;;;;;2.15;1.30;;;;;;;15.52;100.00;93954.22;5075690;28;20226;-80
2021/08/20 06:01:20;;;;;;;3.50;1.75;;;;;;;15.74;100.00;93953.66;5075623;28;20250;-80
2021/08/20 06:03:46;;;;;;;3.38;1.80;;;;;;;15.75;100.00;93957.88;5074738;28;20444;-79
2021/08/20 06:06:14;;;;;;;2.28;1.42;;;;;;;16.07;100.00;93957.56;5074464;28;20203;-79
2021/08/20 06:08:42;;;;;;;2.05;1.30;;;;;;;16.17;100.00;93959.63;5075660;28;20285;-81
2021/08/20 06:11:08;;;;;;;2.20;1.55;;;;;;;15.86;100.00;93959.75;5075498;28;20542;-81
2021/08/20 06:13:35;;;;;;;3.40;1.65;;;;;;;15.82;100.00;93956.00;5075284;28;20199;-82
2021/08/20 06:16:01;;;;;;;2.05;1.60;;;;;;;15.69;100.00;93962.25;5075434;28;20209;-81
2021/08/20 06:18:29;;;;;;;4.15;2.13;;;;;;;15.68;100.00;93963.25;5075243;28;20225;-81
2021/08/20 06:20:56;;;;;;;2.63;1.70;;;;;;;16.07;100.00;93963.66;5075094;28;20599;-82
2021/08/20 06:23:22;;;;;;;2.70;1.48;;;;;;;16.14;100.00;93966.19;5075394;28;20203;-80
2021/08/20 06:25:48;;;;;;;2.85;1.35;;;;;;;16.56;100.00;93960.72;5075194;28;20205;-80
2021/08/20 06:28:15;;;;;;;2.65;1.52;;;;;;;16.69;100.00;93964.16;5075164;28;20203;-81
2021/08/20 06:30:46;;;;;;;3.30;1.35;;;;;;;16.81;100.00;93970.19;5075109;28;20564;-80
2021/08/20 06:33:15;;;;;;;1.83;1.63;;;;;;;17.22;100.00;93964.88;5074931;28;20199;-81
2021/08/20 06:35:46;;;;;;;3.28;1.50;;;;;;;17.40;100.00;93959.41;5075153;28;20226;-80
2021/08/20 06:38:13;;;;;;;2.80;1.55;;;;;;;17.73;100.00;93957.81;5074869;28;20203;-80
2021/08/20 06:40:39;;;;;;;2.42;1.45;;;;;;;17.52;100.00;93964.59;5074736;28;20750;-79
2021/08/20 06:43:06;;;;;;;2.17;1.55;;;;;;;18.00;100.00;93962.50;5074652;28;20547;-80
2021/08/20 06:45:33;;;;;;;1.90;1.45;;;;;;;18.41;100.00;93961.22;5074641;28;20297;-79
2021/08/20 06:47:59;;;;;;;3.95;1.60;;;;;;;18.27;98.21;93960.00;5074916;28;20257;-80
2021/08/20 06:50:26;;;;;;;2.70;1.70;;;;;;;17.96;99.51;93970.09;5073416;28;20956;-80
2021/08/20 06:52:57;;;;;;;4.85;1.50;;;;;;;18.54;96.97;93960.06;5074707;28;20207;-79
2021/08/20 06:55:24;;;;;;;2.10;1.73;;;;;;;18.48;96.40;93971.63;5074818;28;20206;-80
2021/08/20 06:57:53;;;;;;;2.45;1.67;;;;;;;17.91;97.79;93962.09;5073669;28;20616;-80
2021/08/20 07:00:20;;;;;;;3.45;1.55;;;;;;;17.91;97.94;93962.09;5074295;28;20226;-80
2021/08/20 07:02:47;;;;;;;2.33;1.60;;;;;;;18.09;100.00;93964.47;5073477;28;20290;-80
2021/08/20 07:05:15;;;;;;;3.90;1.77;;;;;;;18.74;99.23;93961.38;5074272;28;20194;-81
2021/08/20 07:07:47;;;;;;;3.22;1.67;;;;;;;18.70;96.94;93962.91;5074103;28;20260;-80
2021/08/20 07:10:17;;;;;;;2.20;1.20;;;;;;;18.77;97.68;93963.50;5073557;28;20195;-80
2021/08/20 07:12:47;;;;;;;2.22;1.63;;;;;;;18.90;94.38;93965.84;5074118;28;20234;-80
2021/08/20 07:15:14;;;;;;;4.82;1.95;;;;;;;19.13;93.72;93964.72;5074020;28;20201;-80
2021/08/20 07:17:41;;;;;;;4.70;2.20;;;;;;;18.31;99.16;93966.38;5074246;28;20549;-79
2021/08/20 07:20:09;;;;;;;5.00;2.03;;;;;;;18.16;99.94;93971.44;5074108;28;20276;-81
2021/08/20 07:22:37;;;;;;;4.85;2.40;;;;;;;17.82;100.00;93968.78;5073921;28;20452;-79
2021/08/20 07:25:04;;;;;;;5.03;2.60;;;;;;;18.05;100.00;93968.66;5073477;28;20207;-81
2021/08/20 07:27:32;;;;;;;3.50;2.17;;;;;;;18.59;100.00;93967.28;5073317;28;20198;-80
2021/08/20 07:29:59;;;;;;;7.30;2.78;;;;;;;18.82;97.41;93971.53;5073767;28;20209;-80
2021/08/20 07:32:27;;;;;;;6.30;2.42;;;;;;;19.18;98.41;93964.00;5073540;28;20676;-80
2021/08/20 07:34:56;;;;;;;5.00;3.10;;;;;;;19.69;93.63;93967.13;5073756;28;20543;-80
2021/08/20 07:37:23;;;;;;;5.88;2.65;;;;;;;18.84;94.34;93970.25;5073602;28;20654;-80
2021/08/20 07:39:52;;;;;;;4.85;2.83;;;;;;;19.07;96.43;93970.22;5073652;28;20237;-80
2021/08/20 07:42:19;;;;;;;8.48;3.17;;;;;;;19.24;93.68;93976.25;5073538;28;20202;-81
2021/08/20 07:44:53;;;;;;;7.88;3.22;;;;;;;19.54;91.10;93973.09;5073838;28;20199;-83
2021/08/20 07:47:19;;;;;;;4.70;2.30;;;;;;;20.32;88.71;93983.25;5073740;28;20195;-82
2021/08/20 07:49:46;;;;;;;6.25;2.70;;;;;;;20.32;87.22;93977.16;5073483;28;20195;-81
2021/08/20 07:52:13;;;;;;;6.25;2.75;;;;;;;19.74;88.55;93971.66;5073056;28;20213;-83
2021/08/20 07:54:39;;;;;;;4.63;2.33;;;;;;;20.20;89.78;93973.88;5072763;28;20199;-82
2021/08/20 07:57:06;;;;;;;3.05;2.00;;;;;;;19.86;92.11;93967.00;5073234;28;20244;-83
2021/08/20 07:59:35;;;;;;;4.28;2.47;;;;;;;19.52;94.24;93975.19;5073614;28;20318;-83
2021/08/20 08:02:05;;;;;;;4.53;2.50;;;;;;;19.60;88.95;93976.56;5073366;28;20199;-82
2021/08/20 08:04:34;;;;;;;7.53;2.70;;;;;;;18.85;92.33;93977.16;5074135;28;20202;-84
2021/08/20 08:07:02;;;;;;;5.22;3.10;;;;;;;18.78;90.80;93981.78;5073566;28;20673;-83
2021/08/20 08:09:31;;;;;;;4.78;2.13;;;;;;;19.20;90.90;93983.88;5073455;28;20211;-82
2021/08/20 08:12:01;;;;;;;4.82;2.35;;;;;;;19.58;87.89;93986.63;5072502;28;20653;-81
2021/08/20 08:14:29;;;;;;;7.63;2.10;;;;;;;19.68;88.96;93985.91;5072635;28;20206;-81
2021/08/20 08:17:02;;;;;;;3.08;2.00;;;;;;;19.39;89.24;93989.63;5072907;28;20198;-81
2021/08/20 08:19:30;;;;;;;3.57;2.20;;;;;;;19.69;87.38;93984.88;5072375;28;20453;-83
2021/08/20 08:21:56;;;;;;;4.78;2.35;;;;;;;19.82;89.97;93979.19;5073475;28;20456;-83
2021/08/20 08:24:23;;;;;;;7.25;4.20;;;;;;;20.05;87.86;93990.47;5073307;28;20202;-82
2021/08/20 08:26:52;;;;;;;3.33;1.92;;;;;;;18.99;92.64;93988.16;5072918;28;20199;-83
2021/08/20 08:29:21;;;;;;;3.17;2.08;;;;;;;18.92;94.17;93992.00;5073160;28;20209;-82
2021/08/20 08:31:49;;;;;;;4.38;2.20;;;;;;;18.93;94.71;93994.41;5073152;28;20203;-82
2021/08/20 08:34:16;;;;;;;3.22;2.13;;;;;;;18.74;93.70;93996.56;5072938;28;20233;-81
2021/08/20 08:36:47;;;;;;;4.85;2.28;;;;;;;18.62;95.97;93996.66;5073186;28;20305;-81
2021/08/20 08:39:13;;;;;;;4.40;2.55;;;;;;;18.43;97.54;93990.06;5072781;28;20203;-81
2021/08/20 08:41:40;;;;;;;4.72;2.10;;;;;;;18.42;98.85;93999.06;5073092;28;20195;-81
2021/08/20 08:44:06;;;;;;;4.22;2.17;;;;;;;18.34;97.87;94002.91;5067935;28;20198;-82
2021/08/20 08:46:37;;;;;;;3.33;1.92;;;;;;;18.03;99.92;94002.44;5070971;28;20693;-82
2021/08/20 08:49:04;;;;;;;7.60;2.33;;;;;;;18.27;100.00;93995.13;5072705;28;20668;-81
2021/08/20 08:51:34;;;;;;;5.35;2.08;;;;;;;18.44;97.57;94003.03;5072453;28;20600;-81
2021/08/20 08:54:03;;;;;;;4.50;2.25;;;;;;;18.62;95.27;93999.31;5072214;28;20198;-80
2021/08/20 08:56:29;;;;;;;11.02;3.35;;;;;;;18.74;92.42;93999.19;5072008;28;20673;-82
2021/08/20 08:58:55;;;;;;;5.18;2.20;;;;;;;18.98;89.27;93998.97;5071615;28;20202;-79
2021/08/20 09:01:27;;;;;;;2.40;1.52;;;;;;;18.68;90.49;94005.47;5071873;28;20226;-79
2021/08/20 09:04:08;;;;;;;4.80;1.90;;;;;;;18.99;86.73;94005.88;5072014;28;20442;-80
2021/08/20 09:06:38;;;;;;;3.65;2.00;;;;;;;18.88;86.18;94001.50;5071901;28;20199;-81
2021/08/20 09:09:07;;;;;;;5.85;3.50;;;;;;;19.23;86.48;94006.41;5072460;28;20677;-80
2021/08/20 09:11:34;;;;;;;16.77;6.22;;;;;;;19.48;88.19;94003.22;5072484;28;20662;-81
2021/08/20 09:14:01;;;;;;;3.50;1.90;;;;;;;19.76;85.06;94002.16;5073263;28;20213;-84
2021/08/20 09:16:35;;;;;;;6.78;2.08;;;;;;;20.18;81.92;93998.00;5073544;28;20205;-82
2021/08/20 09:19:12;;;;;;;3.55;2.20;;;;;;;20.04;82.11;93999.50;5069611;28;20206;-84
2021/08/20 09:21:39;;;;;;;4.40;2.20;;;;;;;20.30;84.06;94000.44;5072254;28;20229;-83
2021/08/20 09:24:29;;;;;;;11.93;5.65;;;;;;;20.26;79.64;94002.03;5072279;28;20198;-83
2021/08/20 09:26:55;;;;;;;5.28;3.20;;;;;;;20.11;80.46;93997.41;5075651;28;20672;-83
2021/08/20 09:29:22;;;;;;;8.77;4.50;;;;;;;20.29;75.60;94004.19;5076362;28;20205;-82
2021/08/20 09:31:52;;;;;;;4.20;1.48;;;;;;;19.54;77.54;93996.91;5076167;28;20206;-82
2021/08/20 09:34:19;;;;;;;4.13;1.77;;;;;;;19.34;78.44;93999.38;5076130;28;20209;-83
2021/08/20 09:36:45;;;;;;;2.78;1.70;;;;;;;19.43;74.60;93992.56;5076030;28;20203;-81
2021/08/20 09:39:26;;;;;;;2.22;1.35;;;;;;;19.48;78.54;93994.47;5076178;28;20203;-83
2021/08/20 09:42:11;;;;;;;2.65;1.75;;;;;;;19.62;80.39;93995.69;5076106;28;20245;-83
2021/08/20 09:44:37;;;;;;;2.22;1.52;;;;;;;19.73;79.88;93992.06;5075411;28;20202;-82
2021/08/20 09:47:05;;;;;;;9.90;6.43;;;;;;;19.80;79.91;93996.38;5075368;28;20242;-83
2021/08/20 09:49:32;;;;;;;3.13;1.60;;;;;;;20.15;80.11;93991.38;5075517;28;20473;-84
2021/08/20 09:51:58;;;;;;;1.90;1.33;;;;;;;20.56;77.31;93985.50;5075564;28;20199;-83
2021/08/20 09:54:27;;;;;;;4.18;1.70;;;;;;;20.09;78.88;93994.22;5075860;28;20195;-83
2021/08/20 09:56:54;;;;;;;34.80;21.85;;;;;;;20.30;75.63;93985.38;5075731;28;20202;-83
2021/08/20 09:59:20;;;;;;;4.25;1.83;;;;;;;20.70;76.92;93989.31;5075745;28;20203;-83
2021/08/20 10:01:48;;;;;;;3.00;1.73;;;;;;;20.76;74.77;93992.00;5075579;28;20649;-82
2021/08/20 10:04:18;;;;;;;2.78;1.63;;;;;;;20.60;77.20;93983.13;5075775;28;20209;-84
2021/08/20 10:06:46;;;;;;;7.35;3.30;;;;;;;20.65;75.00;93997.25;5075931;28;20206;-83
2021/08/20 10:09:14;;;;;;;3.33;1.58;;;;;;;20.69;73.13;93993.03;5075874;28;20203;-82
2021/08/20 10:11:47;;;;;;;2.78;1.58;;;;;;;20.48;72.93;93991.28;5075641;28;20206;-83
2021/08/20 10:14:14;;;;;;;4.68;1.83;;;;;;;20.53;74.67;93988.66;5075265;28;20228;-82
2021/08/20 10:16:42;;;;;;;6.07;2.90;;;;;;;20.86;71.01;93992.84;5076096;28;20203;-81
2021/08/20 10:19:10;;;;;;;2.38;1.45;;;;;;;21.26;76.22;93983.41;5075833;28;20201;-82
2021/08/20 10:21:38;;;;;;;4.20;2.33;;;;;;;21.46;71.65;93983.72;5075633;28;20222;-82
2021/08/20 10:24:06;;;;;;;2.38;1.30;;;;;;;21.18;69.29;94005.19;5072648;28;20608;-79
2021/08/20 10:26:33;;;;;;;5.72;3.55;;;;;;;20.96;71.92;93994.72;5073829;28;20294;-81
2021/08/20 10:29:02;;;;;;;2.42;1.80;;;;;;;21.27;67.11;94000.16;5075757;28;20202;-82
2021/08/20 10:31:31;;;;;;;2.83;1.40;;;;;;;20.67;72.30;93999.66;5075521;28;20210;-82
2021/08/20 10:34:00;;;;;;;3.42;1.60;;;;;;;20.67;72.74;93989.84;5075090;28;20609;-81
2021/08/20 10:36:37;;;;;;;2.45;1.75;;;;;;;20.60;72.56;93997.22;5074744;28;20195;-82
2021/08/20 10:39:04;;;;;;;15.63;2.55;;;;;;;20.28;72.59;93995.44;5074404;28;20234;-82
2021/08/20 10:41:31;;;;;;;2.30;1.70;;;;;;;20.41;77.06;93986.22;5074865;28;20235;-82
2021/08/20 10:44:02;;;;;;;3.53;1.73;;;;;;;20.60;78.63;93986.59;5074918;28;20240;-82
2021/08/20 10:47:06;;;;;;;3.47;2.05;;;;;;;20.60;74.33;93983.94;5074837;28;20235;-81
2021/08/20 10:49:48;;;;;;;2.85;1.77;;;;;;;20.77;72.63;93991.75;5075482;28;20198;-81
2021/08/20 10:52:32;;;;;;;2.83;1.70;;;;;;;20.91;73.01;93989.41;5073573;28;20281;-81
2021/08/20 10:55:27;;;;;;;2.97;1.60;;;;;;;20.72;69.51;93989.06;5074655;28;20562;-80
2021/08/20 10:58:02;;;;;;;7.95;4.97;;;;;;;21.14;69.96;93982.84;5072937;28;20203;-81
2021/08/20 11:00:35;;;;;;;5.72;3.50;;;;;;;21.29;69.71;93979.44;5073902;28;20313;-81
2021/08/20 11:03:03;;;;;;;6.60;3.75;;;;;;;21.52;70.48;93972.09;5074568;28;20245;-81
2021/08/20 11:05:38;;;;;;;3.33;2.08;;;;;;;21.83;68.53;93974.75;5074330;28;20297;-80
2021/08/20 11:08:46;;;;;;;3.17;1.83;;;;;;;21.24;66.49;93984.75;5073441;28;20884;-81
2021/08/20 11:11:48;;;;;;;2.15;1.60;;;;;;;21.12;71.35;93981.53;5074311;28;20195;-82
2021/08/20 11:14:34;;;;;;;2.75;1.67;;;;;;;21.14;71.72;93977.53;5060115;28;20210;-81
2021/08/20 11:17:03;;;;;;;3.70;2.50;;;;;;;21.54;73.83;93986.69;5074129;28;20198;-81
2021/08/20 11:19:52;;;;;;;7.70;4.80;;;;;;;21.67;70.62;93974.75;5074180;28;20290;-81
2021/08/20 11:22:21;;;;;;;3.88;2.10;;;;;;;21.70;70.11;93978.72;5073553;28;20269;-81
2021/08/20 11:25:16;;;;;;;2.75;1.60;;;;;;;21.19;73.88;93984.72;5073795;28;20294;-80
2021/08/20 11:27:59;;;;;;;6.18;2.70;;;;;;;21.14;70.72;93988.16;5073890;28;20205;-83
2021/08/20 11:30:29;;;;;;;17.00;10.45;;;;;;;21.17;70.98;93985.00;5074493;28;20210;-80
2021/08/20 11:33:21;;;;;;;5.30;2.30;;;;;;;21.16;69.27;93986.03;5073718;28;20252;-80
2021/08/20 11:35:53;;;;;;;6.85;1.90;;;;;;;21.05;72.60;93985.22;5072414;28;20646;-80